This is the latest recevied weather packets stored in our database for station/object OH6DL-15. If no packets are shown the sender has not sent any weather packets the latest 10 day(s).
| Time | Temp. | Humidity | Pressure | Rain* | Wind** | Luminosity | Snow |
|---|---|---|---|---|---|---|---|
| 1777581363 | 10° C | 76% | 1019.2 hPa | 0 mm | - | - | - |
| 1777579744 | 11.11° C | 70% | 1018.9 hPa | 0 mm | - | - | - |
| 1777572544 | 13.33° C | 63% | 1018.7 hPa | 0 mm | - | - | - |
| 1777572004 | 12.78° C | 67% | 1018.6 hPa | 0 mm | - | - | - |
| 1777570563 | 13.89° C | 63% | 1018.1 hPa | 0 mm | - | - | - |
| 1777570023 | 13.89° C | 63% | 1018 hPa | 0 mm | - | - | - |
| 1777569484 | 14.44° C | 63% | 1018.3 hPa | 0 mm | - | - | - |
| 1777568943 | 13.89° C | 64% | 1018.1 hPa | 0 mm | - | - | - |
| 1777568403 | 13.89° C | 64% | 1018.2 hPa | 0 mm | - | - | - |
| 1777568043 | 13.89° C | 64% | 1018.2 hPa | 0 mm | - | - | - |
| 1777566423 | 13.89° C | 63% | 1018.2 hPa | 0 mm | - | - | - |
| 1777562414 | 15° C | 60% | 1018.3 hPa | 0 mm | - | - | - |
| 1777559223 | 13.33° C | 62% | 1017.9 hPa | 0 mm | - | - | - |
| 1777554543 | 14.44° C | 60% | 1018 hPa | 0 mm | - | - | - |
| 1777546804 | 12.22° C | 68% | 1017.9 hPa | 0 mm | - | - | - |
| 1777545903 | 12.22° C | 68% | 1018.3 hPa | 0 mm | - | - | - |
| 1777542303 | 11.11° C | 72% | 1018.2 hPa | 0 mm | - | - | - |
| 1777540275 | 10.56° C | 74% | 1018.5 hPa | 0 mm | - | - | - |
| 1777538704 | 10° C | 75% | 1018.2 hPa | 0 mm | - | - | - |
| 1777536004 | 8.89° C | 79% | 1018.4 hPa | 0 mm | - | - | - |
| 1777533483 | 8.33° C | 82% | 1018.1 hPa | 0 mm | - | - | - |
| 1777532403 | 7.22° C | 86% | 1018.2 hPa | 0 mm | - | - | - |
| 1777530963 | 6.11° C | 89% | 1018.2 hPa | 0 mm | - | - | - |
| 1777527903 | 5° C | 93% | 1018.3 hPa | 0 mm | - | - | - |
| 1777525744 | 4.44° C | 94% | 1018 hPa | 0 mm | - | - | - |
* Rain latest hour (hover to see other rain measurements)
** Current wind speed in m/s (hover to see current wind gust speed)